Brunswick Malcolm McKinnon Airport

About
Name: Brunswick Malcolm McKinnon Airport
Identifier:  SSI/KSSI
Serves:  Brunswick, Georgia
Owner:  Glynn County
Public/Private:  Public
Local Time:  15. Sep 10:11 EDT
Description: Coordinates: 31°09′07″N 081°23′29″W / 31.15194°N 81.39139°W / 31.15194; -81.39139
Source: Wikipedia
Location
Runways
Identifier Length (m/ft) Surface
4/22 5,800/5,800 Asphalt
16/34 3,313/3,313 Asphalt
Statistics
Flights per Day:
0 flights
Distance: 408km (253mi)
Flights delayed:
25% (0 flights per day delayed)
Delay Average: 258 minutes
Current Weather
 28 C (Humidity: 78%)
  12kt (22km/h / 13mph) from 20°
  Scattered clouds at 1,400 feet (426 meter)
  Broken clouds at 2,000 feet (609 meter)
  Overcast at 3,200 feet (975 meter)
  16km (10 mi.)
 Light/Moderate: Rain
 METAR KSSI 151353Z AUTO 02012KT 10SM -RA SCT014 BKN020 OVC032 28/24 A3003 RMK AO2 RAB12 SLP171 P0002 T02780244

Current Delays

Departures
N/A
Arrivals
N/A

Destinations

Top Destinations
Airport Flights
per week
Seats
per week
  Atlanta (PDK) 1 - 0 0
  New Orleans (NEW) 0 - 0 0
  Nassau (NAS) 0 - 0 0

Airlines & Planes

Top Airlines
Airline Flights
per Day
Seats
per Day
Gama Aviation 0 -
Top Plane Types
Model Flights Seats
Beech B300 Super King Air 350 0.3/day - 0